createdAt,value
2023-05-10T00:01:41.381Z,73.40
2023-05-10T00:04:09.766Z,74.70
2023-05-10T00:06:37.910Z,76.70
2023-05-10T00:09:06.135Z,75.70
2023-05-10T00:11:35.894Z,75.70
2023-05-10T00:14:04.018Z,75.40
2023-05-10T00:16:32.363Z,77.00
2023-05-10T00:19:00.570Z,76.70
2023-05-10T00:21:29.346Z,76.90
2023-05-10T00:23:57.553Z,76.00
2023-05-10T00:26:25.693Z,75.60
2023-05-10T00:28:55.244Z,76.40
2023-05-10T00:31:23.439Z,79.10
2023-05-10T00:33:51.609Z,78.80
2023-05-10T00:36:19.708Z,78.90
2023-05-10T00:38:47.861Z,79.60
2023-05-10T00:41:16.661Z,79.30
2023-05-10T00:43:44.966Z,79.10
2023-05-10T00:46:16.136Z,81.00
2023-05-10T00:48:45.299Z,80.60
2023-05-10T00:51:13.738Z,79.20
2023-05-10T00:53:42.549Z,80.10
2023-05-10T00:56:10.739Z,80.10
2023-05-10T00:58:39.281Z,81.20
2023-05-10T01:01:08.179Z,81.10
2023-05-10T01:03:39.021Z,83.30
2023-05-10T01:06:07.824Z,82.70
2023-05-10T01:08:36.211Z,83.00
2023-05-10T01:11:04.461Z,82.00
2023-05-10T01:13:37.215Z,84.10
2023-05-10T01:16:06.022Z,84.70
2023-05-10T01:18:38.599Z,83.70
2023-05-10T01:21:17.077Z,85.50
2023-05-10T01:24:11.481Z,84.50
2023-05-10T01:27:03.500Z,85.90
2023-05-10T01:30:14.724Z,84.30
2023-05-10T01:32:51.465Z,86.80
2023-05-10T01:35:25.065Z,87.20
2023-05-10T01:38:01.830Z,87.40
2023-05-10T01:40:36.578Z,88.50
2023-05-10T01:43:07.438Z,87.30
2023-05-10T01:45:44.494Z,86.90
2023-05-10T01:48:16.191Z,87.20
2023-05-10T01:50:47.485Z,86.70
2023-05-10T01:53:19.889Z,86.00
2023-05-10T01:55:50.679Z,85.80
2023-05-10T01:58:23.157Z,85.60
2023-05-10T02:00:52.935Z,85.80
2023-05-10T02:03:26.179Z,86.10
2023-05-10T02:05:56.639Z,84.50
2023-05-10T02:08:25.944Z,85.90
2023-05-10T02:10:56.776Z,83.30
2023-05-10T02:13:27.045Z,85.30
2023-05-10T02:15:56.679Z,85.60
2023-05-10T02:18:27.791Z,86.80
2023-05-10T02:20:57.532Z,85.60
2023-05-10T02:23:27.742Z,88.10
2023-05-10T02:25:57.233Z,86.40
2023-05-10T02:28:27.065Z,87.20
2023-05-10T02:30:56.272Z,87.60
2023-05-10T02:33:26.528Z,89.50
2023-05-10T02:35:55.016Z,88.80
2023-05-10T02:38:24.775Z,88.70
2023-05-10T02:40:53.687Z,86.40
2023-05-10T02:43:26.170Z,87.80
2023-05-10T02:45:54.746Z,89.00
2023-05-10T02:48:22.981Z,87.90
2023-05-10T02:50:56.945Z,90.10
2023-05-10T02:53:32.812Z,90.30
2023-05-10T02:56:04.846Z,89.20
2023-05-10T02:58:32.965Z,89.80
2023-05-10T03:01:02.183Z,90.00
2023-05-10T03:03:30.341Z,90.40
2023-05-10T03:06:00.035Z,90.50
2023-05-10T03:08:30.293Z,90.30
2023-05-10T03:11:18.976Z,91.10
2023-05-10T03:13:56.420Z,90.30
2023-05-10T03:16:29.651Z,91.90
2023-05-10T03:19:07.491Z,91.40
2023-05-10T03:21:43.710Z,91.50
2023-05-10T03:24:16.296Z,91.80
2023-05-10T03:26:46.756Z,91.70
2023-05-10T03:29:16.928Z,91.70
2023-05-10T03:31:45.419Z,91.20
2023-05-10T03:34:13.710Z,91.60
2023-05-10T03:36:43.353Z,93.00
2023-05-10T03:39:11.536Z,92.40
2023-05-10T03:41:39.671Z,92.80
2023-05-10T03:44:07.864Z,92.20
2023-05-10T03:46:36.009Z,92.40
2023-05-10T03:49:04.182Z,93.10
2023-05-10T03:51:32.579Z,93.60
2023-05-10T03:54:02.155Z,93.20
2023-05-10T03:56:30.685Z,92.90
2023-05-10T03:58:58.842Z,92.80
2023-05-10T04:01:27.058Z,92.00
2023-05-10T04:03:55.335Z,93.10
2023-05-10T04:06:23.513Z,93.50
2023-05-10T04:08:51.745Z,93.30
2023-05-10T04:11:22.942Z,92.50
2023-05-10T04:13:51.121Z,92.00
2023-05-10T04:16:19.340Z,91.40
2023-05-10T04:18:47.492Z,91.50
2023-05-10T04:21:15.834Z,91.70
2023-05-10T04:23:43.980Z,91.10
2023-05-10T04:26:12.126Z,90.50
2023-05-10T04:28:41.660Z,91.50
2023-05-10T04:31:11.680Z,90.70
2023-05-10T04:33:39.940Z,91.30
2023-05-10T04:36:08.618Z,90.80
2023-05-10T04:38:36.790Z,90.20
2023-05-10T04:41:08.643Z,90.70
2023-05-10T04:43:37.438Z,90.70
2023-05-10T04:46:08.164Z,91.20
2023-05-10T04:48:36.446Z,90.10
2023-05-10T04:51:05.816Z,89.20
2023-05-10T04:53:34.132Z,89.50
2023-05-10T04:56:02.311Z,88.90
2023-05-10T04:58:30.500Z,88.90
2023-05-10T05:00:58.691Z,89.00
2023-05-10T05:03:28.320Z,89.20
2023-05-10T05:05:56.508Z,87.90
2023-05-10T05:08:25.010Z,87.80
2023-05-10T05:10:53.288Z,88.80
2023-05-10T05:13:21.513Z,88.80
2023-05-10T05:15:49.707Z,88.10
2023-05-10T05:18:17.864Z,87.60
2023-05-10T05:20:47.418Z,87.50
2023-05-10T05:23:15.581Z,87.30
2023-05-10T05:25:43.800Z,86.80
2023-05-10T05:28:11.902Z,84.80
2023-05-10T05:30:40.101Z,83.50
2023-05-10T05:33:08.262Z,84.10
2023-05-10T05:35:36.438Z,84.40
2023-05-10T05:38:06.220Z,82.50
2023-05-10T05:40:34.405Z,83.00
2023-05-10T05:43:02.690Z,80.90
2023-05-10T05:45:30.835Z,81.10
2023-05-10T05:47:59.799Z,79.60
2023-05-10T05:50:28.057Z,80.70
2023-05-10T05:52:56.315Z,78.20
2023-05-10T05:55:26.922Z,76.90
2023-05-10T05:57:55.250Z,76.10
2023-05-10T06:00:23.708Z,76.70
2023-05-10T06:02:51.877Z,76.70
2023-05-10T06:05:21.222Z,75.80
2023-05-10T06:07:49.376Z,74.20
2023-05-10T06:10:17.582Z,74.70
2023-05-10T06:12:47.085Z,74.50
2023-05-10T06:15:15.396Z,71.00
2023-05-10T06:17:44.400Z,72.40
2023-05-10T06:20:14.062Z,70.60
2023-05-10T06:22:42.183Z,70.20
2023-05-10T06:25:11.316Z,70.80
2023-05-10T06:27:39.512Z,71.50
2023-05-10T06:30:13.330Z,69.00
2023-05-10T06:32:41.827Z,69.60
2023-05-10T06:35:10.998Z,70.30
2023-05-10T06:37:39.265Z,68.20
2023-05-10T06:40:08.960Z,66.50
2023-05-10T06:42:37.158Z,67.70
2023-05-10T06:45:06.349Z,67.30
2023-05-10T06:47:38.674Z,67.20
2023-05-10T06:50:08.297Z,64.40
2023-05-10T06:52:36.413Z,65.60
2023-05-10T06:55:05.402Z,65.50
2023-05-10T06:57:33.853Z,64.10
2023-05-10T07:00:02.154Z,62.30
2023-05-10T07:02:30.425Z,63.20
2023-05-10T07:05:02.355Z,63.50
2023-05-10T07:07:31.268Z,63.20
2023-05-10T07:09:59.666Z,62.70
2023-05-10T07:12:27.986Z,61.90
2023-05-10T07:14:56.243Z,61.30
2023-05-10T07:17:24.423Z,58.90
2023-05-10T07:19:52.731Z,56.90
2023-05-10T07:22:22.263Z,55.00
2023-05-10T07:24:50.349Z,52.30
2023-05-10T07:27:18.539Z,48.90
2023-05-10T07:29:46.941Z,48.10
2023-05-10T07:32:15.127Z,50.40
2023-05-10T07:34:43.675Z,51.20
2023-05-10T07:37:12.509Z,49.30
2023-05-10T07:39:42.012Z,43.30
2023-05-10T07:42:10.175Z,45.80
2023-05-10T07:44:38.328Z,45.10
2023-05-10T07:47:06.528Z,44.00
2023-05-10T07:49:34.687Z,44.60
2023-05-10T07:52:02.846Z,44.20
2023-05-10T07:54:31.111Z,44.60
2023-05-10T07:57:00.822Z,41.50
2023-05-10T07:59:28.996Z,41.00
2023-05-10T08:01:57.259Z,40.30
2023-05-10T08:04:25.525Z,41.00
2023-05-10T08:06:53.709Z,41.70
2023-05-10T08:09:24.734Z,40.30
2023-05-10T08:11:53.172Z,40.70
2023-05-10T08:14:22.856Z,41.40
2023-05-10T08:16:50.974Z,39.60
2023-05-10T08:19:20.538Z,38.20
2023-05-10T08:21:48.816Z,39.10
2023-05-10T08:24:17.311Z,39.50
2023-05-10T08:26:45.444Z,38.90
2023-05-10T08:29:16.390Z,38.60
2023-05-10T08:31:46.266Z,38.10
2023-05-10T08:34:14.464Z,40.10
2023-05-10T08:36:42.600Z,40.20
2023-05-10T08:39:19.463Z,40.90
2023-05-10T08:42:00.053Z,40.50
2023-05-10T08:44:28.375Z,40.20
2023-05-10T08:46:59.391Z,39.90
2023-05-10T08:49:29.550Z,39.00
2023-05-10T08:51:59.691Z,37.70
2023-05-10T08:54:27.940Z,40.20
2023-05-10T08:56:56.137Z,38.70
2023-05-10T08:59:25.053Z,37.10
2023-05-10T09:01:54.605Z,37.50
2023-05-10T09:04:24.718Z,38.00
2023-05-10T09:06:52.999Z,38.30
2023-05-10T09:09:22.675Z,37.70
2023-05-10T09:11:50.891Z,37.80
2023-05-10T09:14:19.558Z,37.80
2023-05-10T09:16:47.910Z,36.80
2023-05-10T09:19:16.314Z,36.00
2023-05-10T09:21:45.912Z,35.00
2023-05-10T09:24:14.665Z,36.70
2023-05-10T09:26:49.990Z,37.50
2023-05-10T09:29:18.363Z,37.80
2023-05-10T09:31:49.045Z,36.10
2023-05-10T09:34:21.508Z,37.50
2023-05-10T09:37:01.986Z,36.60
2023-05-10T09:39:34.663Z,36.50
2023-05-10T09:42:05.765Z,35.40
2023-05-10T09:44:34.648Z,35.30
2023-05-10T09:47:03.214Z,36.20
2023-05-10T09:49:31.706Z,35.70
2023-05-10T09:52:05.430Z,36.20
2023-05-10T09:54:34.078Z,37.00
2023-05-10T09:57:02.735Z,35.30
2023-05-10T09:59:32.100Z,35.70
2023-05-10T10:02:01.961Z,36.70
2023-05-10T10:04:30.443Z,34.60
2023-05-10T10:07:07.211Z,36.40
2023-05-10T10:09:36.931Z,35.20
2023-05-10T10:12:05.747Z,35.90
2023-05-10T10:14:34.050Z,33.70
2023-05-10T10:19:36.638Z,35.90
2023-05-10T10:22:05.330Z,34.60
2023-05-10T10:24:35.064Z,35.10
2023-05-10T10:27:14.283Z,34.70
2023-05-10T10:29:54.957Z,35.20
2023-05-10T10:32:30.136Z,35.40
2023-05-10T10:34:59.002Z,33.90
2023-05-10T10:37:45.512Z,35.10
2023-05-10T10:40:28.001Z,34.40
2023-05-10T10:42:56.543Z,34.00
2023-05-10T10:45:26.799Z,34.10
2023-05-10T10:48:31.706Z,34.70
2023-05-10T10:51:00.035Z,34.60
2023-05-10T10:53:30.177Z,34.80
2023-05-10T10:56:10.279Z,33.10
2023-05-10T10:58:39.760Z,33.00
2023-05-10T11:01:16.310Z,33.60
2023-05-10T11:04:12.757Z,35.10
2023-05-10T11:06:41.244Z,33.30
2023-05-10T11:09:10.390Z,33.40
2023-05-10T11:11:51.205Z,34.10
2023-05-10T11:14:23.065Z,33.80
2023-05-10T11:16:51.296Z,32.40
2023-05-10T11:19:20.267Z,34.00
2023-05-10T11:21:50.538Z,32.90
2023-05-10T11:24:20.374Z,32.90
2023-05-10T11:26:52.399Z,32.30
2023-05-10T11:29:20.993Z,32.60
2023-05-10T11:31:50.222Z,32.50
2023-05-10T11:34:29.260Z,32.20
2023-05-10T11:36:58.265Z,32.10
2023-05-10T11:39:29.471Z,32.80
2023-05-10T11:41:59.614Z,32.00
2023-05-10T11:44:32.314Z,32.20
2023-05-10T11:47:01.607Z,32.00
2023-05-10T11:49:29.882Z,32.70
2023-05-10T11:52:06.571Z,31.20
2023-05-10T11:54:35.865Z,31.20
2023-05-10T11:57:06.157Z,31.30
2023-05-10T11:59:34.348Z,32.40
2023-05-10T12:02:02.901Z,32.30
2023-05-10T12:04:31.349Z,32.20
2023-05-10T12:06:59.870Z,32.10
2023-05-10T12:11:59.098Z,31.60
2023-05-10T12:14:29.232Z,32.20
2023-05-10T12:16:59.722Z,32.50
2023-05-10T12:19:27.868Z,31.40
2023-05-10T12:21:55.985Z,30.40
2023-05-10T12:24:25.728Z,31.70
2023-05-10T12:26:53.874Z,31.80
2023-05-10T12:29:22.070Z,31.10
2023-05-10T12:32:00.484Z,30.40
2023-05-10T12:34:31.859Z,31.40
2023-05-10T12:37:00.033Z,31.20
2023-05-10T12:39:28.450Z,31.10
2023-05-10T12:41:56.576Z,31.30
2023-05-10T12:44:24.748Z,30.50
2023-05-10T12:46:52.965Z,30.60
2023-05-10T12:49:22.488Z,30.20
2023-05-10T12:51:50.617Z,31.10
2023-05-10T12:54:18.779Z,30.10
2023-05-10T12:56:46.929Z,30.00
2023-05-10T12:59:15.331Z,30.50
2023-05-10T13:01:43.590Z,31.50
2023-05-10T13:04:11.929Z,32.10
2023-05-10T13:06:41.467Z,29.50
2023-05-10T13:09:09.664Z,31.00
2023-05-10T13:11:37.844Z,30.00
2023-05-10T13:14:05.991Z,29.90
2023-05-10T13:16:34.445Z,29.20
2023-05-10T13:19:02.848Z,30.20
2023-05-10T13:21:31.460Z,29.90
2023-05-10T13:24:01.240Z,29.90
2023-05-10T13:26:29.601Z,29.70
2023-05-10T13:28:57.821Z,29.30
2023-05-10T13:31:26.153Z,29.40
2023-05-10T13:33:54.320Z,29.20
2023-05-10T13:36:23.788Z,28.80
2023-05-10T13:38:51.984Z,29.80
2023-05-10T13:41:21.877Z,29.20
2023-05-10T13:43:50.567Z,29.00
2023-05-10T13:46:18.798Z,29.70
2023-05-10T13:48:47.005Z,29.40
2023-05-10T13:51:15.179Z,29.60
2023-05-10T13:53:43.363Z,29.50
2023-05-10T13:56:11.642Z,30.60
2023-05-10T13:58:41.195Z,29.60
2023-05-10T14:01:09.389Z,29.70
2023-05-10T14:03:38.117Z,30.60
2023-05-10T14:06:08.390Z,29.90
2023-05-10T14:08:37.539Z,30.00
2023-05-10T14:11:05.753Z,30.50
2023-05-10T14:13:33.967Z,30.80
2023-05-10T14:16:03.477Z,30.00
2023-05-10T14:18:31.750Z,28.80
2023-05-10T14:20:59.954Z,28.90
2023-05-10T14:23:29.698Z,29.60
2023-05-10T14:25:58.373Z,30.00
2023-05-10T14:28:26.698Z,30.10
2023-05-10T14:30:54.964Z,30.00
2023-05-10T14:33:24.556Z,31.30
2023-05-10T14:35:52.701Z,29.30
2023-05-10T14:38:20.826Z,29.80
2023-05-10T14:40:48.990Z,29.20
2023-05-10T14:43:17.284Z,29.30
2023-05-10T14:45:45.828Z,28.40
2023-05-10T14:48:16.520Z,27.80
2023-05-10T14:50:46.215Z,29.10
2023-05-10T14:53:14.513Z,28.70
2023-05-10T14:55:42.719Z,27.60
2023-05-10T14:58:10.862Z,27.30
2023-05-10T15:00:39.075Z,27.90
2023-05-10T15:03:07.819Z,27.80
2023-05-10T15:05:38.324Z,28.00
2023-05-10T15:08:08.005Z,29.20
2023-05-10T15:10:36.157Z,28.00
2023-05-10T15:13:05.406Z,27.80
2023-05-10T15:15:33.720Z,27.70
2023-05-10T15:18:01.925Z,28.00
2023-05-10T15:20:30.082Z,27.90
2023-05-10T15:22:58.283Z,26.70
2023-05-10T15:25:28.752Z,26.80
2023-05-10T15:27:57.048Z,27.00
2023-05-10T15:30:25.223Z,27.00
2023-05-10T15:32:53.818Z,27.00
2023-05-10T15:35:22.082Z,26.90
2023-05-10T15:37:50.812Z,27.20
2023-05-10T15:40:19.165Z,27.40
2023-05-10T15:42:48.716Z,27.00
2023-05-10T15:45:17.434Z,27.50
2023-05-10T15:47:46.438Z,28.30
2023-05-10T15:50:14.726Z,27.80
2023-05-10T15:52:43.376Z,27.00
2023-05-10T15:55:13.194Z,28.10
2023-05-10T15:57:42.607Z,27.40
2023-05-10T16:00:14.260Z,28.10
2023-05-10T16:02:42.796Z,28.00
2023-05-10T16:05:11.627Z,27.20
2023-05-10T16:07:40.270Z,27.90
2023-05-10T16:10:10.507Z,27.50
2023-05-10T16:12:39.201Z,27.50
2023-05-10T16:15:08.400Z,27.50
2023-05-10T16:17:38.034Z,27.40
2023-05-10T16:20:07.441Z,27.70
2023-05-10T16:22:35.718Z,27.20
2023-05-10T16:25:03.930Z,27.10
2023-05-10T16:27:33.550Z,27.60
2023-05-10T16:30:02.147Z,27.90
2023-05-10T16:32:30.446Z,28.90
2023-05-10T16:35:00.485Z,29.00
2023-05-10T16:37:29.107Z,28.30
2023-05-10T16:39:57.267Z,27.30
2023-05-10T16:42:26.141Z,27.80
2023-05-10T16:44:55.475Z,28.20
2023-05-10T16:47:26.654Z,28.00
2023-05-10T16:49:55.030Z,28.50
2023-05-10T16:52:24.603Z,29.10
2023-05-10T16:54:52.832Z,29.60
2023-05-10T16:57:21.014Z,29.20
2023-05-10T16:59:49.458Z,29.30
2023-05-10T17:02:17.720Z,29.00
2023-05-10T17:04:46.018Z,28.60
2023-05-10T17:07:14.183Z,29.00
2023-05-10T17:09:44.804Z,29.50
2023-05-10T17:12:13.017Z,29.40
2023-05-10T17:14:41.215Z,29.70
2023-05-10T17:17:09.449Z,29.30
2023-05-10T17:19:37.721Z,29.60
2023-05-10T17:22:05.893Z,29.50
2023-05-10T17:24:34.095Z,28.80
2023-05-10T17:27:04.432Z,29.00
2023-05-10T17:29:32.991Z,28.90
2023-05-10T17:32:01.298Z,29.20
2023-05-10T17:34:29.550Z,29.50
2023-05-10T17:36:58.610Z,30.20
2023-05-10T17:39:26.787Z,30.50
2023-05-10T17:41:55.074Z,28.80
2023-05-10T17:44:25.583Z,28.80
2023-05-10T17:46:53.958Z,28.90
2023-05-10T17:49:23.294Z,29.10
2023-05-10T17:51:51.532Z,28.90
2023-05-10T17:54:19.922Z,29.00
2023-05-10T17:56:48.139Z,29.40
2023-05-10T17:59:16.366Z,29.50
2023-05-10T18:01:45.974Z,29.70
2023-05-10T18:04:14.211Z,30.30
2023-05-10T18:06:42.360Z,31.50
2023-05-10T18:09:10.591Z,30.40
2023-05-10T18:11:39.491Z,31.50
2023-05-10T18:14:07.658Z,30.80
2023-05-10T18:16:35.879Z,31.50
2023-05-10T18:19:05.515Z,31.70
2023-05-10T18:21:33.906Z,32.00
2023-05-10T18:24:02.923Z,32.30
2023-05-10T18:26:31.225Z,33.60
2023-05-10T18:29:00.751Z,32.80
2023-05-10T18:31:29.978Z,33.20
2023-05-10T18:33:58.335Z,33.30
2023-05-10T18:36:28.237Z,34.40
2023-05-10T18:38:56.564Z,34.10
2023-05-10T18:41:26.839Z,35.90
2023-05-10T18:43:55.377Z,34.90
2023-05-10T18:46:24.225Z,34.10
2023-05-10T18:48:52.494Z,35.70
2023-05-10T18:51:22.179Z,35.80
2023-05-10T18:53:51.727Z,35.90
2023-05-10T18:56:19.894Z,36.00
2023-05-10T18:58:48.043Z,37.50
2023-05-10T19:01:16.345Z,35.40
2023-05-10T19:03:44.556Z,36.10
2023-05-10T19:06:12.842Z,35.80
2023-05-10T19:08:41.021Z,35.90
2023-05-10T19:11:10.612Z,36.20
2023-05-10T19:13:38.768Z,36.60
2023-05-10T19:16:07.722Z,37.20
2023-05-10T19:18:38.434Z,37.90
2023-05-10T19:21:09.735Z,38.10
2023-05-10T19:23:39.708Z,37.60
2023-05-10T19:26:09.525Z,37.70
2023-05-10T19:28:39.202Z,36.90
2023-05-10T19:31:08.787Z,37.10
2023-05-10T19:33:40.795Z,36.90
2023-05-10T19:36:09.227Z,36.90
2023-05-10T19:38:39.146Z,37.30
2023-05-10T19:41:07.383Z,37.20
2023-05-10T19:43:38.398Z,37.70
2023-05-10T19:46:09.668Z,37.50
2023-05-10T19:48:38.904Z,39.50
2023-05-10T19:51:09.957Z,39.40
2023-05-10T19:53:40.011Z,40.40
2023-05-10T19:56:08.797Z,39.80
2023-05-10T19:58:37.047Z,40.50
2023-05-10T20:01:07.365Z,40.90
2023-05-10T20:03:37.289Z,39.50
2023-05-10T20:06:05.913Z,40.10
2023-05-10T20:08:34.290Z,40.00
2023-05-10T20:11:03.790Z,41.00
2023-05-10T20:13:32.121Z,41.60
2023-05-10T20:16:02.186Z,42.50
2023-05-10T20:18:30.479Z,42.90
2023-05-10T20:21:01.545Z,41.30
2023-05-10T20:23:30.194Z,42.50
2023-05-10T20:25:58.503Z,43.60
2023-05-10T20:28:28.277Z,42.60
2023-05-10T20:30:57.001Z,43.20
2023-05-10T20:33:26.484Z,42.50
2023-05-10T20:35:54.628Z,42.20
2023-05-10T20:38:24.160Z,41.70
2023-05-10T20:40:52.319Z,41.90
2023-05-10T20:43:21.353Z,42.60
2023-05-10T20:45:49.867Z,43.40
2023-05-10T20:48:19.750Z,42.90
2023-05-10T20:50:47.956Z,43.10
2023-05-10T20:53:16.147Z,42.70
2023-05-10T20:55:45.693Z,42.30
2023-05-10T20:58:13.848Z,42.60
2023-05-10T21:00:44.466Z,42.40
2023-05-10T21:03:12.697Z,42.60
2023-05-10T21:05:41.104Z,42.60
2023-05-10T21:08:09.261Z,42.90
2023-05-10T21:10:37.382Z,42.60
2023-05-10T21:13:06.960Z,43.40
2023-05-10T21:15:35.102Z,44.20
2023-05-10T21:18:03.354Z,43.80
2023-05-10T21:20:32.359Z,43.50
2023-05-10T21:23:00.514Z,43.50
2023-05-10T21:25:28.800Z,43.80
2023-05-10T21:27:57.383Z,44.10
2023-05-10T21:30:27.107Z,45.30
2023-05-10T21:32:59.702Z,45.50
2023-05-10T21:35:28.148Z,45.80
2023-05-10T21:37:56.311Z,46.00
2023-05-10T21:40:24.823Z,45.70
2023-05-10T21:42:52.969Z,45.90
2023-05-10T21:45:21.499Z,46.30
2023-05-10T21:47:51.124Z,46.00
2023-05-10T21:50:19.862Z,45.80
2023-05-10T21:52:48.197Z,46.90
2023-05-10T21:55:17.038Z,45.90
2023-05-10T21:57:45.438Z,46.80
2023-05-10T22:00:16.297Z,46.60
2023-05-10T22:02:44.756Z,47.10
2023-05-10T22:05:14.437Z,47.10
2023-05-10T22:07:42.651Z,46.60
2023-05-10T22:10:11.034Z,46.40
2023-05-10T22:12:39.174Z,47.10
2023-05-10T22:15:10.864Z,46.90
2023-05-10T22:17:40.163Z,46.90
2023-05-10T22:20:10.065Z,47.30
2023-05-10T22:22:39.804Z,47.80
2023-05-10T22:25:08.967Z,47.80
2023-05-10T22:27:37.322Z,47.70
2023-05-10T22:30:06.517Z,48.20
2023-05-10T22:32:35.072Z,48.20
2023-05-10T22:35:05.469Z,49.10
2023-05-10T22:37:33.585Z,49.00
2023-05-10T22:40:03.831Z,49.50
2023-05-10T22:42:32.063Z,50.50
2023-05-10T22:45:00.198Z,50.50
2023-05-10T22:47:28.370Z,49.40
2023-05-10T22:49:58.258Z,49.20
2023-05-10T22:52:26.822Z,50.30
2023-05-10T22:54:54.895Z,50.00
2023-05-10T22:57:24.534Z,50.20
2023-05-10T22:59:53.142Z,49.70
2023-05-10T23:02:21.350Z,50.40
2023-05-10T23:04:49.619Z,50.00
2023-05-10T23:07:17.772Z,51.60
2023-05-10T23:09:45.987Z,50.50
2023-05-10T23:12:14.131Z,51.00
2023-05-10T23:14:46.187Z,51.40
2023-05-10T23:17:15.605Z,51.30
2023-05-10T23:19:43.731Z,53.30
2023-05-10T23:22:11.855Z,52.60
2023-05-10T23:24:40.620Z,53.20
2023-05-10T23:27:08.741Z,53.30
2023-05-10T23:29:36.894Z,51.60
2023-05-10T23:32:06.826Z,52.30
2023-05-10T23:34:35.024Z,53.50
2023-05-10T23:37:03.192Z,53.00
2023-05-10T23:39:31.286Z,52.40
2023-05-10T23:41:59.355Z,52.90
2023-05-10T23:44:27.521Z,53.20
2023-05-10T23:46:55.623Z,53.10
2023-05-10T23:49:25.131Z,52.80
2023-05-10T23:51:53.201Z,54.00
2023-05-10T23:54:21.591Z,53.30
2023-05-10T23:56:51.531Z,53.90
2023-05-10T23:59:19.644Z,52.30
